createdAt,value
2022-11-26T00:01:26.470Z,13.98
2022-11-26T00:03:54.913Z,14.52
2022-11-26T00:06:39.461Z,15.32
2022-11-26T00:09:14.203Z,19.02
2022-11-26T00:11:42.881Z,24.73
2022-11-26T00:14:15.775Z,34.20
2022-11-26T00:16:45.392Z,32.05
2022-11-26T00:19:13.695Z,18.17
2022-11-26T00:21:42.951Z,16.88
2022-11-26T00:24:29.037Z,10.73
2022-11-26T00:26:59.364Z,11.43
2022-11-26T00:29:27.591Z,14.13
2022-11-26T00:31:55.956Z,16.25
2022-11-26T00:34:24.252Z,16.55
2022-11-26T00:36:52.434Z,16.83
2022-11-26T00:39:24.420Z,13.50
2022-11-26T00:41:53.862Z,17.70
2022-11-26T00:44:26.184Z,18.90
2022-11-26T00:46:54.394Z,24.10
2022-11-26T00:49:22.577Z,32.20
2022-11-26T00:51:50.969Z,39.13
2022-11-26T00:54:20.255Z,39.83
2022-11-26T00:56:49.652Z,34.47
2022-11-26T00:59:22.793Z,20.10
2022-11-26T01:01:51.188Z,14.88
2022-11-26T01:04:19.452Z,11.90
2022-11-26T01:06:47.817Z,10.60
2022-11-26T01:09:21.634Z,15.18
2022-11-26T01:11:54.046Z,16.23
2022-11-26T01:14:23.667Z,16.67
2022-11-26T01:16:54.422Z,15.30
2022-11-26T01:19:22.890Z,13.52
2022-11-26T01:21:50.952Z,13.50
2022-11-26T01:24:19.265Z,21.33
2022-11-26T01:26:47.501Z,27.27
2022-11-26T01:29:18.245Z,27.17
2022-11-26T01:31:46.972Z,27.23
2022-11-26T01:34:15.330Z,27.88
2022-11-26T01:36:44.024Z,26.88
2022-11-26T01:39:18.284Z,25.73
2022-11-26T01:41:57.443Z,25.70
2022-11-26T01:44:31.483Z,26.55
2022-11-26T01:47:01.424Z,28.50
2022-11-26T01:49:35.040Z,32.80
2022-11-26T01:52:18.165Z,32.42
2022-11-26T01:54:46.742Z,30.55
2022-11-26T01:57:22.278Z,33.30
2022-11-26T01:59:54.347Z,30.35
2022-11-26T02:02:24.846Z,28.98
2022-11-26T02:05:18.867Z,30.83
2022-11-26T02:07:47.841Z,30.13
2022-11-26T02:10:16.222Z,29.45
2022-11-26T02:12:44.761Z,31.23
2022-11-26T02:15:13.690Z,28.95
2022-11-26T02:18:01.740Z,28.38
2022-11-26T02:20:57.380Z,31.23
2022-11-26T02:23:44.301Z,30.17
2022-11-26T02:26:48.330Z,31.02
2022-11-26T02:29:37.894Z,32.42
2022-11-26T02:32:18.348Z,34.95
2022-11-26T02:34:50.116Z,38.17
2022-11-26T02:37:34.348Z,36.75
2022-11-26T02:40:02.803Z,39.65
2022-11-26T02:42:33.405Z,39.35
2022-11-26T02:45:16.904Z,40.75
2022-11-26T02:47:49.418Z,40.67
2022-11-26T02:50:29.799Z,43.10
2022-11-26T02:53:00.143Z,40.30
2022-11-26T02:55:33.326Z,41.55
2022-11-26T02:58:02.109Z,40.35
2022-11-26T03:00:32.186Z,40.35
2022-11-26T03:03:13.832Z,41.08
2022-11-26T03:05:43.529Z,39.58
2022-11-26T03:08:11.731Z,40.63
2022-11-26T03:10:39.993Z,40.13
2022-11-26T03:13:08.175Z,40.50
2022-11-26T03:15:36.288Z,43.42
2022-11-26T03:18:04.914Z,43.97
2022-11-26T03:20:33.098Z,46.05
2022-11-26T03:23:01.168Z,45.42
2022-11-26T03:25:29.730Z,44.20
2022-11-26T03:27:58.102Z,42.70
2022-11-26T03:30:26.455Z,42.10
2022-11-26T03:32:54.751Z,38.03
2022-11-26T03:35:23.300Z,37.90
2022-11-26T03:37:51.820Z,37.53
2022-11-26T03:40:20.189Z,35.67
2022-11-26T03:42:48.282Z,37.47
2022-11-26T03:45:16.573Z,33.22
2022-11-26T03:47:44.899Z,34.33
2022-11-26T03:50:13.147Z,34.17
2022-11-26T03:52:41.551Z,35.88
2022-11-26T03:55:10.212Z,36.30
2022-11-26T03:57:38.335Z,34.30
2022-11-26T04:00:08.057Z,36.42
2022-11-26T04:02:37.162Z,34.95
2022-11-26T04:05:05.800Z,36.20
2022-11-26T04:07:34.074Z,36.85
2022-11-26T04:10:02.316Z,33.85
2022-11-26T04:12:30.475Z,34.45
2022-11-26T04:14:58.603Z,34.78
2022-11-26T04:17:27.010Z,35.17
2022-11-26T04:19:55.038Z,32.83
2022-11-26T04:22:23.353Z,35.25
2022-11-26T04:24:51.378Z,35.55
2022-11-26T04:27:19.589Z,33.35
2022-11-26T04:29:47.829Z,34.40
2022-11-26T04:32:15.902Z,34.17
2022-11-26T04:34:44.048Z,33.25
2022-11-26T04:37:12.300Z,34.42
2022-11-26T04:39:40.486Z,31.73
2022-11-26T04:42:08.838Z,34.00
2022-11-26T04:44:37.226Z,34.72
2022-11-26T04:47:05.481Z,33.63
2022-11-26T04:49:33.753Z,33.83
2022-11-26T04:52:01.922Z,32.88
2022-11-26T04:54:30.039Z,36.20
2022-11-26T04:56:58.337Z,36.35
2022-11-26T04:59:26.470Z,35.55
2022-11-26T05:01:54.656Z,36.20
2022-11-26T05:04:22.819Z,34.47
2022-11-26T05:06:50.955Z,36.75
2022-11-26T05:09:19.009Z,34.30
2022-11-26T05:11:47.322Z,34.17
2022-11-26T05:14:15.433Z,33.53
2022-11-26T05:16:43.713Z,34.08
2022-11-26T05:19:12.068Z,34.05
2022-11-26T05:21:40.326Z,34.05
2022-11-26T05:24:08.480Z,37.00
2022-11-26T05:26:37.063Z,39.05
2022-11-26T05:29:05.141Z,36.63
2022-11-26T05:31:33.435Z,38.20
2022-11-26T05:34:01.782Z,38.80
2022-11-26T05:36:30.107Z,37.78
2022-11-26T05:38:58.382Z,35.45
2022-11-26T05:41:26.571Z,36.53
2022-11-26T05:43:54.927Z,38.92
2022-11-26T05:46:23.067Z,37.75
2022-11-26T05:48:51.371Z,37.72
2022-11-26T05:51:19.557Z,36.03
2022-11-26T05:53:47.733Z,34.00
2022-11-26T05:56:15.944Z,35.22
2022-11-26T05:58:44.484Z,34.35
2022-11-26T06:01:12.660Z,35.58
2022-11-26T06:03:40.883Z,35.33
2022-11-26T06:06:09.277Z,34.67
2022-11-26T06:08:37.700Z,37.33
2022-11-26T06:11:06.181Z,36.38
2022-11-26T06:13:34.281Z,38.05
2022-11-26T06:16:02.584Z,36.42
2022-11-26T06:18:31.008Z,39.03
2022-11-26T06:21:03.036Z,38.88
2022-11-26T06:23:33.107Z,38.80
2022-11-26T06:26:01.962Z,41.50
2022-11-26T06:28:29.998Z,38.80
2022-11-26T06:30:58.328Z,40.03
2022-11-26T06:33:26.714Z,38.45
2022-11-26T06:36:00.985Z,41.15
2022-11-26T06:38:29.797Z,40.97
2022-11-26T06:41:01.947Z,42.90
2022-11-26T06:43:30.895Z,41.35
2022-11-26T06:46:03.936Z,42.13
2022-11-26T06:48:32.858Z,41.25
2022-11-26T06:51:06.420Z,40.13
2022-11-26T06:53:35.369Z,41.42
2022-11-26T06:56:05.763Z,42.00
2022-11-26T06:58:34.581Z,42.60
2022-11-26T07:01:09.647Z,42.22
2022-11-26T07:03:38.409Z,40.88
2022-11-26T07:06:06.836Z,39.95
2022-11-26T07:08:35.320Z,39.10
2022-11-26T07:11:04.530Z,39.50
2022-11-26T07:13:32.842Z,39.35
2022-11-26T07:16:05.811Z,36.45
2022-11-26T07:18:34.392Z,36.63
2022-11-26T07:21:07.874Z,49.60
2022-11-26T07:23:36.624Z,71.65
2022-11-26T07:26:06.303Z,83.13
2022-11-26T07:28:35.988Z,76.05
2022-11-26T07:31:12.948Z,50.55
2022-11-26T07:33:45.371Z,42.75
2022-11-26T07:36:19.703Z,40.33
2022-11-26T07:38:48.576Z,42.58
2022-11-26T07:41:19.221Z,45.00
2022-11-26T07:43:48.354Z,49.90
2022-11-26T07:46:20.783Z,42.33
2022-11-26T07:48:49.441Z,35.33
2022-11-26T07:51:19.462Z,31.63
2022-11-26T07:53:49.040Z,29.80
2022-11-26T07:56:17.838Z,32.45
2022-11-26T07:58:46.125Z,31.02
2022-11-26T08:01:20.665Z,31.08
2022-11-26T08:03:50.349Z,30.20
2022-11-26T08:06:21.264Z,27.52
2022-11-26T08:08:49.885Z,28.52
2022-11-26T08:11:21.120Z,29.58
2022-11-26T08:14:01.299Z,29.08
2022-11-26T08:16:29.988Z,28.02
2022-11-26T08:19:00.223Z,35.90
2022-11-26T08:21:29.107Z,38.65
2022-11-26T08:23:57.657Z,35.58
2022-11-26T08:26:35.097Z,35.38
2022-11-26T08:29:04.881Z,30.42
2022-11-26T08:31:33.406Z,27.48
2022-11-26T08:34:03.467Z,26.42
2022-11-26T08:36:32.297Z,28.02
2022-11-26T08:39:01.545Z,26.27
2022-11-26T08:41:29.889Z,30.10
2022-11-26T08:44:07.166Z,33.72
2022-11-26T08:46:38.252Z,34.53
2022-11-26T08:49:08.204Z,34.42
2022-11-26T08:51:36.611Z,33.50
2022-11-26T08:54:05.463Z,33.05
2022-11-26T08:56:34.067Z,31.52
2022-11-26T08:59:02.674Z,29.63
2022-11-26T09:01:33.544Z,33.67
2022-11-26T09:04:03.652Z,31.40
2022-11-26T09:06:34.174Z,29.85
2022-11-26T09:09:03.614Z,28.95
2022-11-26T09:11:33.272Z,27.60
2022-11-26T09:14:01.797Z,22.95
2022-11-26T09:16:30.303Z,26.77
2022-11-26T09:19:01.179Z,18.33
2022-11-26T09:21:30.020Z,14.13
2022-11-26T09:23:58.686Z,13.73
2022-11-26T09:26:27.318Z,12.25
2022-11-26T09:28:55.777Z,8.75
2022-11-26T09:31:24.040Z,9.32
2022-11-26T09:33:52.466Z,10.32
2022-11-26T09:36:20.857Z,11.00
2022-11-26T09:38:49.320Z,11.88
2022-11-26T09:41:22.821Z,13.98
2022-11-26T09:44:09.349Z,13.07
2022-11-26T09:47:10.590Z,13.82
2022-11-26T09:49:41.759Z,12.77
2022-11-26T09:52:12.443Z,10.60
2022-11-26T09:54:41.241Z,9.50
2022-11-26T09:57:23.842Z,9.90
2022-11-26T09:59:54.662Z,12.30
2022-11-26T10:02:23.263Z,10.50
2022-11-26T10:04:51.955Z,11.98
2022-11-26T10:07:26.179Z,11.20
2022-11-26T10:10:16.215Z,9.80
2022-11-26T10:13:17.214Z,10.05
2022-11-26T10:16:19.912Z,18.60
2022-11-26T10:19:03.992Z,17.30
2022-11-26T10:21:58.813Z,14.15
2022-11-26T10:24:33.864Z,12.63
2022-11-26T10:27:11.455Z,14.20
2022-11-26T10:29:43.634Z,14.43
2022-11-26T10:32:48.464Z,13.32
2022-11-26T10:35:22.972Z,11.25
2022-11-26T10:37:52.297Z,9.88
2022-11-26T10:40:38.586Z,9.68
2022-11-26T10:43:09.662Z,11.13
2022-11-26T10:45:50.212Z,11.97
2022-11-26T10:48:35.561Z,11.05
2022-11-26T10:51:27.882Z,10.38
2022-11-26T10:56:44.796Z,12.07
2022-11-26T10:59:42.156Z,13.02
2022-11-26T11:02:35.252Z,12.07
2022-11-26T11:05:08.154Z,13.27
2022-11-26T11:07:36.512Z,19.15
2022-11-26T11:10:10.732Z,44.60
2022-11-26T11:12:40.965Z,82.07
2022-11-26T11:15:24.475Z,28.80
2022-11-26T11:18:01.546Z,19.13
2022-11-26T11:20:32.095Z,28.42
2022-11-26T11:23:40.377Z,12.68
2022-11-26T11:26:19.829Z,11.70
2022-11-26T11:28:54.148Z,23.63
2022-11-26T11:31:27.216Z,13.20
2022-11-26T11:34:19.820Z,41.47
2022-11-26T11:37:14.805Z,30.88
2022-11-26T11:39:44.260Z,13.43
2022-11-26T11:42:30.906Z,26.73
2022-11-26T11:45:01.883Z,12.63
2022-11-26T11:47:43.161Z,15.50
2022-11-26T11:50:21.244Z,12.43
2022-11-26T11:53:26.361Z,14.55
2022-11-26T11:56:28.453Z,21.38
2022-11-26T11:58:59.853Z,15.75
2022-11-26T12:01:46.704Z,38.90
2022-11-26T12:04:39.624Z,19.35
2022-11-26T12:07:40.358Z,13.60
2022-11-26T12:10:31.048Z,14.80
2022-11-26T12:13:06.691Z,15.30
2022-11-26T12:15:41.546Z,18.08
2022-11-26T12:18:31.737Z,46.03
2022-11-26T12:21:10.534Z,15.57
2022-11-26T12:23:53.316Z,14.27
2022-11-26T12:26:33.598Z,18.35
2022-11-26T12:29:11.405Z,56.63
2022-11-26T12:31:55.158Z,21.45
2022-11-26T12:34:34.227Z,15.40
2022-11-26T12:37:07.163Z,14.95
2022-11-26T12:39:39.592Z,16.20
2022-11-26T12:42:45.875Z,21.73
2022-11-26T12:45:18.838Z,33.00
2022-11-26T12:48:01.656Z,23.85
2022-11-26T12:50:40.234Z,23.52
2022-11-26T12:53:33.018Z,18.15
2022-11-26T12:56:23.417Z,17.20
2022-11-26T12:59:08.320Z,17.63
2022-11-26T13:01:37.151Z,22.17
2022-11-26T13:04:36.133Z,33.97
2022-11-26T13:07:08.993Z,17.00
2022-11-26T13:09:56.156Z,14.70
2022-11-26T13:12:30.890Z,13.68
2022-11-26T13:15:13.095Z,12.93
2022-11-26T13:17:46.363Z,11.80
2022-11-26T13:20:31.917Z,13.07
2022-11-26T13:23:12.371Z,12.48
2022-11-26T13:25:59.311Z,11.57
2022-11-26T13:28:52.596Z,26.13
2022-11-26T13:31:39.203Z,29.00
2022-11-26T13:34:19.547Z,11.38
2022-11-26T13:37:15.713Z,27.55
2022-11-26T13:40:06.799Z,10.15
2022-11-26T13:42:56.806Z,12.05
2022-11-26T13:45:35.699Z,14.23
2022-11-26T13:48:10.017Z,23.20
2022-11-26T13:51:19.989Z,9.00
2022-11-26T13:54:05.211Z,16.17
2022-11-26T13:56:34.901Z,14.27
2022-11-26T13:59:28.654Z,13.90
2022-11-26T14:01:57.758Z,16.63
2022-11-26T14:04:26.190Z,9.55
2022-11-26T14:07:06.430Z,7.50
2022-11-26T14:09:44.020Z,7.13
2022-11-26T14:12:13.722Z,8.27
2022-11-26T14:14:44.116Z,9.77
2022-11-26T14:17:23.915Z,8.48
2022-11-26T14:19:52.427Z,7.88
2022-11-26T14:22:20.827Z,15.52
2022-11-26T14:24:49.101Z,8.30
2022-11-26T14:27:33.111Z,8.48
2022-11-26T14:30:07.213Z,11.10
2022-11-26T14:32:41.244Z,8.57
2022-11-26T14:35:30.747Z,13.93
2022-11-26T14:38:05.118Z,15.43
2022-11-26T14:40:38.906Z,9.98
2022-11-26T14:43:20.538Z,7.43
2022-11-26T14:46:22.567Z,7.53
2022-11-26T14:48:52.626Z,10.45
2022-11-26T14:51:26.091Z,10.60
2022-11-26T14:53:55.831Z,13.27
2022-11-26T14:56:25.628Z,7.95
2022-11-26T14:59:00.198Z,9.73
2022-11-26T15:01:30.181Z,12.27
2022-11-26T15:04:08.013Z,18.77
2022-11-26T15:06:42.639Z,9.70
2022-11-26T15:09:15.233Z,8.10
2022-11-26T15:11:53.402Z,19.15
2022-11-26T15:14:24.661Z,9.00
2022-11-26T15:16:58.972Z,9.65
2022-11-26T15:19:29.862Z,11.02
2022-11-26T15:21:58.866Z,13.80
2022-11-26T15:24:27.965Z,10.25
2022-11-26T15:26:56.378Z,13.77
2022-11-26T15:29:37.280Z,8.77
2022-11-26T15:32:05.962Z,9.80
2022-11-26T15:34:34.688Z,20.98
2022-11-26T15:37:04.506Z,21.33
2022-11-26T15:39:33.124Z,12.63
2022-11-26T15:42:23.082Z,14.38
2022-11-26T15:44:51.685Z,12.57
2022-11-26T15:47:22.329Z,13.88
2022-11-26T15:49:54.699Z,9.82
2022-11-26T15:52:28.952Z,10.35
2022-11-26T15:55:13.144Z,8.57
2022-11-26T15:57:43.132Z,8.70
2022-11-26T16:00:33.553Z,9.85
2022-11-26T16:03:02.375Z,10.63
2022-11-26T16:05:35.329Z,11.65
2022-11-26T16:08:21.775Z,15.88
2022-11-26T16:10:58.641Z,12.02
2022-11-26T16:13:34.526Z,14.68
2022-11-26T16:16:10.299Z,12.18
2022-11-26T16:19:00.332Z,10.20
2022-11-26T16:21:34.152Z,12.43
2022-11-26T16:24:07.681Z,10.38
2022-11-26T16:27:01.805Z,15.32
2022-11-26T16:29:31.598Z,13.18
2022-11-26T16:32:00.497Z,13.85
2022-11-26T16:34:29.606Z,14.93
2022-11-26T16:37:25.385Z,11.82
2022-11-26T16:40:17.846Z,12.43
2022-11-26T16:42:48.592Z,13.57
2022-11-26T16:45:17.609Z,11.48
2022-11-26T16:47:52.282Z,10.13
2022-11-26T16:50:27.760Z,12.45
2022-11-26T16:52:58.919Z,13.15
2022-11-26T16:55:28.010Z,12.55
2022-11-26T16:57:59.760Z,11.30
2022-11-26T17:00:28.348Z,12.90
2022-11-26T17:02:57.165Z,13.50
2022-11-26T17:05:25.915Z,14.75
2022-11-26T17:07:57.709Z,14.13
2022-11-26T17:10:29.337Z,12.25
2022-11-26T17:12:58.624Z,12.57
2022-11-26T17:15:27.535Z,10.52
2022-11-26T17:18:06.392Z,11.15
2022-11-26T17:20:36.105Z,9.98
2022-11-26T17:23:06.673Z,9.27
2022-11-26T17:25:35.434Z,9.43
2022-11-26T17:28:04.219Z,10.73
2022-11-26T17:30:32.941Z,10.88
2022-11-26T17:33:01.727Z,10.82
2022-11-26T17:35:30.529Z,10.02
2022-11-26T17:37:59.096Z,9.43
2022-11-26T17:40:27.604Z,8.88
2022-11-26T17:42:56.374Z,9.38
2022-11-26T17:45:24.866Z,9.98
2022-11-26T17:47:53.404Z,8.75
2022-11-26T17:50:27.885Z,10.43
2022-11-26T17:52:56.383Z,9.90
2022-11-26T17:55:26.585Z,9.07
2022-11-26T17:57:55.336Z,9.38
2022-11-26T18:00:27.032Z,9.77
2022-11-26T18:02:56.420Z,11.02
2022-11-26T18:05:25.543Z,9.65
2022-11-26T18:07:54.154Z,11.40
2022-11-26T18:10:23.732Z,11.18
2022-11-26T18:12:55.715Z,11.98
2022-11-26T18:15:26.424Z,10.75
2022-11-26T18:17:56.579Z,12.00
2022-11-26T18:20:28.829Z,13.05
2022-11-26T18:22:59.979Z,25.38
2022-11-26T18:25:34.279Z,31.80
2022-11-26T18:28:03.033Z,33.17
2022-11-26T18:30:31.561Z,30.55
2022-11-26T18:32:59.925Z,27.88
2022-11-26T18:35:28.297Z,26.83
2022-11-26T18:37:56.452Z,23.60
2022-11-26T18:40:25.093Z,23.48
2022-11-26T18:42:53.574Z,21.65
2022-11-26T18:45:22.092Z,23.27
2022-11-26T18:47:50.377Z,23.38
2022-11-26T18:50:19.174Z,23.85
2022-11-26T18:52:47.298Z,24.23
2022-11-26T18:55:15.944Z,22.95
2022-11-26T18:57:44.348Z,25.05
2022-11-26T19:00:14.517Z,28.30
2022-11-26T19:02:42.960Z,28.80
2022-11-26T19:05:11.331Z,28.58
2022-11-26T19:07:39.728Z,27.80
2022-11-26T19:10:08.814Z,27.20
2022-11-26T19:12:37.151Z,26.42
2022-11-26T19:15:05.908Z,28.17
2022-11-26T19:17:34.521Z,26.98
2022-11-26T19:20:02.934Z,25.90
2022-11-26T19:22:31.460Z,30.75
2022-11-26T19:25:00.008Z,29.98
2022-11-26T19:27:30.448Z,36.15
2022-11-26T19:30:01.643Z,40.20
2022-11-26T19:32:30.192Z,42.80
2022-11-26T19:35:02.710Z,50.20
2022-11-26T19:37:34.261Z,42.97
2022-11-26T19:40:02.993Z,36.88
2022-11-26T19:42:31.570Z,34.15
2022-11-26T19:45:00.141Z,32.38
2022-11-26T19:47:28.481Z,29.15
2022-11-26T19:49:57.201Z,28.00
2022-11-26T19:52:26.398Z,29.17
2022-11-26T19:54:54.821Z,29.58
2022-11-26T19:57:23.562Z,28.40
2022-11-26T19:59:52.100Z,30.48
2022-11-26T20:02:20.398Z,30.38
2022-11-26T20:04:48.960Z,25.02
2022-11-26T20:07:17.249Z,23.65
2022-11-26T20:09:45.664Z,24.83
2022-11-26T20:12:14.210Z,23.58
2022-11-26T20:14:42.832Z,25.55
2022-11-26T20:17:11.969Z,26.40
2022-11-26T20:19:40.953Z,23.80
2022-11-26T20:22:09.882Z,23.50
2022-11-26T20:24:38.309Z,22.17
2022-11-26T20:27:06.624Z,21.63
2022-11-26T20:29:35.110Z,20.77
2022-11-26T20:32:03.387Z,21.05
2022-11-26T20:34:31.726Z,19.75
2022-11-26T20:37:00.322Z,21.45
2022-11-26T20:39:28.987Z,23.70
2022-11-26T20:41:57.420Z,24.17
2022-11-26T20:44:25.937Z,24.67
2022-11-26T20:46:54.219Z,27.17
2022-11-26T20:49:22.934Z,27.77
2022-11-26T20:51:51.598Z,31.83
2022-11-26T20:54:20.231Z,32.65
2022-11-26T20:56:48.708Z,36.33
2022-11-26T20:59:17.270Z,38.80
2022-11-26T21:01:45.911Z,36.88
2022-11-26T21:04:14.119Z,51.53
2022-11-26T21:06:43.911Z,49.75
2022-11-26T21:09:14.312Z,90.10
2022-11-26T21:11:42.827Z,157.93
2022-11-26T21:14:14.987Z,124.60
2022-11-26T21:16:43.886Z,83.82
2022-11-26T21:19:13.083Z,71.88
2022-11-26T21:21:41.732Z,62.85
2022-11-26T21:24:10.241Z,83.95
2022-11-26T21:26:38.978Z,73.68
2022-11-26T21:29:07.374Z,64.97
2022-11-26T21:31:35.622Z,67.82
2022-11-26T21:34:07.568Z,60.85
2022-11-26T21:36:37.539Z,56.22
2022-11-26T21:39:05.987Z,60.92
2022-11-26T21:41:34.204Z,56.80
2022-11-26T21:44:02.816Z,61.22
2022-11-26T21:46:37.590Z,55.83
2022-11-26T21:49:07.820Z,43.97
2022-11-26T21:51:36.241Z,41.03
2022-11-26T21:54:05.082Z,39.80
2022-11-26T21:56:33.712Z,37.30
2022-11-26T21:59:02.704Z,38.15
2022-11-26T22:01:36.151Z,41.63
2022-11-26T22:04:22.769Z,53.50
2022-11-26T22:06:51.762Z,73.97
2022-11-26T22:09:20.319Z,80.35
2022-11-26T22:11:48.769Z,78.60
2022-11-26T22:14:17.935Z,71.90
2022-11-26T22:16:46.558Z,73.03
2022-11-26T22:19:14.965Z,67.03
2022-11-26T22:21:43.881Z,58.42
2022-11-26T22:24:17.321Z,56.47
2022-11-26T22:26:46.200Z,56.05
2022-11-26T22:29:19.305Z,55.83
2022-11-26T22:31:47.801Z,53.00
2022-11-26T22:34:18.598Z,47.90
2022-11-26T22:36:47.118Z,44.38
2022-11-26T22:39:17.870Z,43.35
2022-11-26T22:41:48.049Z,45.85
2022-11-26T22:44:17.077Z,44.30
2022-11-26T22:46:46.181Z,43.88
2022-11-26T22:49:16.799Z,43.28
2022-11-26T22:51:45.278Z,44.20
2022-11-26T22:54:15.779Z,41.85
2022-11-26T22:56:44.161Z,40.97
2022-11-26T22:59:14.605Z,38.45
2022-11-26T23:01:43.220Z,37.72
2022-11-26T23:04:12.009Z,39.05
2022-11-26T23:06:40.895Z,45.42
2022-11-26T23:09:11.420Z,72.35
2022-11-26T23:11:42.407Z,84.53
2022-11-26T23:14:11.803Z,85.03
2022-11-26T23:16:42.146Z,84.22
2022-11-26T23:19:13.382Z,89.40
2022-11-26T23:21:42.892Z,93.22
2022-11-26T23:24:11.557Z,91.32
2022-11-26T23:26:40.917Z,84.85
2022-11-26T23:29:10.092Z,74.53
2022-11-26T23:31:41.568Z,60.55
2022-11-26T23:34:11.161Z,49.92
2022-11-26T23:36:39.965Z,44.03
2022-11-26T23:39:11.281Z,45.90
2022-11-26T23:41:39.813Z,46.73
2022-11-26T23:44:07.926Z,43.58
2022-11-26T23:46:36.272Z,44.47
2022-11-26T23:49:05.398Z,43.30
2022-11-26T23:51:34.523Z,42.08
2022-11-26T23:54:02.886Z,40.83
2022-11-26T23:56:33.481Z,40.42
2022-11-26T23:59:04.035Z,38.53
